Time;durP1;ratioP1;P1;durP2;ratioP2;P2;SDS_P1;SDS_P2;PMS_P1;PMS_P2;Temp;Humidity;BMP_temperature;BMP_pressure;BME280_temperature;BME280_humidity;BME280_pressure;Samples;Min_cycle;Max_cycle;Signal;HPM_P1;HPM_P2
2022/11/22 00:01:02;;;;;;;18.73;11.30;;;3.70;99.90;;;;;;4887693;29;20509;-76
2022/11/22 00:03:27;;;;;;;19.85;11.30;;;3.70;99.90;;;;;;4890590;29;20044;-76
2022/11/22 00:05:53;;;;;;;19.80;12.32;;;3.70;99.90;;;;;;4899151;29;20554;-75
2022/11/22 00:08:19;;;;;;;29.08;11.75;;;3.70;99.90;;;;;;4898637;29;20099;-75
2022/11/22 00:10:44;;;;;;;24.30;11.95;;;3.80;99.90;;;;;;4896900;29;20059;-75
2022/11/22 00:13:10;;;;;;;24.25;12.52;;;3.90;99.90;;;;;;4902510;29;20384;-76
2022/11/22 00:15:35;;;;;;;20.63;11.90;;;3.90;99.90;;;;;;4898633;29;20040;-73
2022/11/22 00:18:01;;;;;;;20.95;12.27;;;3.90;99.90;;;;;;4895715;29;20071;-73
2022/11/22 00:20:26;;;;;;;17.00;11.57;;;3.90;99.90;;;;;;4877625;29;20051;-76
2022/11/22 00:22:55;;;;;;;18.38;11.82;;;3.90;99.90;;;;;;4871986;29;20040;-75
2022/11/22 00:25:20;;;;;;;22.33;11.85;;;4.00;99.90;;;;;;4895368;29;20146;-76
2022/11/22 00:27:46;;;;;;;19.15;11.63;;;4.00;99.90;;;;;;4888603;29;20040;-76
2022/11/22 00:30:12;;;;;;;20.42;10.60;;;4.10;99.90;;;;;;4894040;29;20048;-76
2022/11/22 00:32:37;;;;;;;20.27;12.07;;;4.20;99.90;;;;;;4892280;29;20051;-76
2022/11/22 00:35:03;;;;;;;23.65;12.45;;;4.20;99.90;;;;;;4898418;29;20078;-76
2022/11/22 00:37:29;;;;;;;16.48;12.27;;;4.20;99.90;;;;;;4898236;29;20726;-76
2022/11/22 00:39:54;;;;;;;33.13;13.40;;;4.30;99.90;;;;;;4896715;29;20087;-75
2022/11/22 00:42:20;;;;;;;18.95;12.55;;;4.30;99.90;;;;;;4899063;29;20048;-76
2022/11/22 00:44:46;;;;;;;21.75;12.70;;;4.30;99.90;;;;;;4897697;29;20059;-78
2022/11/22 00:47:11;;;;;;;27.08;13.32;;;4.30;99.90;;;;;;4907323;29;20044;-80
2022/11/22 00:49:37;;;;;;;23.13;13.35;;;4.30;99.90;;;;;;4906797;29;20052;-81
2022/11/22 00:52:02;;;;;;;19.65;11.75;;;4.30;99.90;;;;;;4894592;29;20044;-81
2022/11/22 00:54:28;;;;;;;22.15;13.30;;;4.30;99.90;;;;;;4879198;29;20044;-80
2022/11/22 00:56:53;;;;;;;21.52;12.80;;;4.30;99.90;;;;;;4887208;29;20064;-80
2022/11/22 00:59:19;;;;;;;22.85;12.70;;;4.30;99.90;;;;;;4884729;29;20056;-81
2022/11/22 01:01:44;;;;;;;24.42;13.02;;;4.40;99.90;;;;;;4890676;29;20041;-81
2022/11/22 01:04:10;;;;;;;33.03;13.50;;;4.40;99.90;;;;;;4888391;29;20053;-81
2022/11/22 01:06:36;;;;;;;23.35;12.68;;;4.30;99.90;;;;;;4889449;29;20048;-82
2022/11/22 01:09:01;;;;;;;24.08;12.27;;;4.30;99.90;;;;;;4895957;29;20032;-82
2022/11/22 01:11:27;;;;;;;25.42;12.77;;;4.30;99.90;;;;;;4888891;29;20106;-81
2022/11/22 01:13:52;;;;;;;27.67;12.85;;;4.30;99.90;;;;;;4881505;29;20047;-76
2022/11/22 01:16:18;;;;;;;26.20;12.65;;;4.30;99.90;;;;;;4879744;29;20032;-79
2022/11/22 01:18:44;;;;;;;19.73;12.55;;;4.20;99.90;;;;;;4871837;29;20051;-78
2022/11/22 01:21:10;;;;;;;19.77;12.70;;;4.20;99.90;;;;;;4877487;29;20447;-77
2022/11/22 01:23:36;;;;;;;23.85;12.60;;;4.30;99.90;;;;;;4884031;29;20429;-77
2022/11/22 01:26:02;;;;;;;18.30;11.07;;;4.30;99.90;;;;;;4870875;29;20071;-77
2022/11/22 01:28:28;;;;;;;18.20;11.73;;;4.30;99.90;;;;;;4881311;29;20494;-77
2022/11/22 01:30:54;;;;;;;23.95;13.13;;;4.30;99.90;;;;;;4883117;29;20055;-77
2022/11/22 01:33:20;;;;;;;29.75;12.35;;;4.30;99.90;;;;;;4881575;29;20053;-78
2022/11/22 01:35:46;;;;;;;40.33;13.57;;;4.30;99.90;;;;;;4878423;29;20293;-78
2022/11/22 01:38:12;;;;;;;105.65;63.95;;;4.30;99.90;;;;;;4886310;29;20120;-77
2022/11/22 01:40:37;;;;;;;37.03;18.02;;;4.20;99.90;;;;;;4879187;29;20041;-78
2022/11/22 01:43:17;;;;;;;37.63;13.25;;;4.20;99.90;;;;;;4881386;29;20052;-78
2022/11/22 01:45:46;;;;;;;18.08;11.07;;;4.10;99.90;;;;;;4871295;29;20136;-77
2022/11/22 01:48:11;;;;;;;19.88;11.10;;;4.10;99.90;;;;;;4876633;29;20040;-78
2022/11/22 01:50:39;;;;;;;18.05;10.70;;;4.20;99.90;;;;;;4870244;29;20060;-77
2022/11/22 01:53:12;;;;;;;18.65;10.75;;;4.20;99.90;;;;;;4869912;29;20119;-77
2022/11/22 01:55:39;;;;;;;15.48;11.32;;;4.30;99.90;;;;;;4866688;29;20036;-77
2022/11/22 01:58:06;;;;;;;18.55;10.15;;;4.30;99.90;;;;;;4874305;29;20713;-77
2022/11/22 02:00:32;;;;;;;13.60;10.75;;;4.20;99.90;;;;;;4870811;29;20044;-77
2022/11/22 02:03:01;;;;;;;13.00;10.20;;;4.20;99.90;;;;;;4868048;29;20056;-77
2022/11/22 02:05:31;;;;;;;15.88;9.90;;;4.20;99.90;;;;;;4868451;29;20132;-77
2022/11/22 02:08:25;;;;;;;14.13;10.60;;;4.30;99.90;;;;;;4868057;29;20081;-77
2022/11/22 02:10:53;;;;;;;17.92;13.05;;;4.30;99.90;;;;;;4870986;29;20260;-77
2022/11/22 02:13:21;;;;;;;25.20;16.23;;;4.30;99.90;;;;;;4864141;29;20863;-77
2022/11/22 02:15:48;;;;;;;15.75;10.98;;;4.30;99.90;;;;;;4864094;29;20045;-77
2022/11/22 02:18:14;;;;;;;17.67;11.10;;;4.30;99.90;;;;;;4864563;29;20610;-77
2022/11/22 02:20:40;;;;;;;16.05;11.00;;;4.40;99.90;;;;;;4866906;29;20037;-77
2022/11/22 02:23:24;;;;;;;15.15;10.93;;;4.40;99.90;;;;;;4864215;29;20618;-77
2022/11/22 02:25:55;;;;;;;20.77;10.10;;;4.40;99.90;;;;;;4863630;29;20064;-77
2022/11/22 02:28:21;;;;;;;15.57;10.97;;;4.40;99.90;;;;;;4869529;29;20048;-77
2022/11/22 02:30:47;;;;;;;72.88;47.80;;;4.40;99.90;;;;;;4868107;29;20395;-76
2022/11/22 02:33:12;;;;;;;49.67;33.38;;;4.40;99.90;;;;;;4868749;29;20443;-76
2022/11/22 02:35:39;;;;;;;35.30;24.42;;;4.40;99.90;;;;;;4864209;29;20072;-76
2022/11/22 02:38:08;;;;;;;32.60;23.00;;;4.40;99.90;;;;;;4867848;29;20058;-76
2022/11/22 02:40:41;;;;;;;31.65;20.85;;;4.40;99.90;;;;;;4868996;29;20037;-76
2022/11/22 02:43:15;;;;;;;43.47;29.88;;;4.40;99.90;;;;;;4863173;29;20013;-76
2022/11/22 02:45:41;;;;;;;52.45;34.97;;;4.20;99.90;;;;;;4862369;29;20079;-76
2022/11/22 02:48:13;;;;;;;77.65;51.72;;;4.20;99.90;;;;;;4866534;29;20153;-77
2022/11/22 02:50:38;;;;;;;23.48;17.33;;;4.20;99.90;;;;;;4854742;29;20082;-77
2022/11/22 02:53:05;;;;;;;24.02;12.65;;;4.20;99.90;;;;;;4872169;29;20053;-77
2022/11/22 02:55:32;;;;;;;21.30;12.75;;;4.20;99.90;;;;;;4868065;29;20036;-77
2022/11/22 02:57:58;;;;;;;16.10;10.85;;;4.20;99.90;;;;;;4870550;29;20041;-77
2022/11/22 03:00:24;;;;;;;79.72;53.45;;;4.30;99.90;;;;;;4868387;29;20040;-77
2022/11/22 03:02:49;;;;;;;38.45;26.92;;;4.30;99.90;;;;;;4864930;29;20167;-78
2022/11/22 03:05:15;;;;;;;27.75;19.58;;;4.20;99.90;;;;;;4865974;29;20782;-78
2022/11/22 03:07:41;;;;;;;27.30;12.40;;;4.30;99.90;;;;;;4871350;29;20044;-77
2022/11/22 03:10:07;;;;;;;25.10;11.98;;;4.30;99.90;;;;;;4868832;29;20044;-77
2022/11/22 03:12:32;;;;;;;18.90;11.85;;;4.30;99.90;;;;;;4867998;29;20052;-77
2022/11/22 03:14:58;;;;;;;16.30;11.25;;;4.30;99.90;;;;;;4867463;29;20600;-76
2022/11/22 03:17:23;;;;;;;15.70;10.73;;;4.30;99.90;;;;;;4868765;29;20048;-77
2022/11/22 03:19:49;;;;;;;16.48;10.43;;;4.30;99.90;;;;;;4873185;29;21834;-76
2022/11/22 03:22:15;;;;;;;16.90;10.85;;;4.40;99.90;;;;;;4869834;29;20148;-77
2022/11/22 03:24:40;;;;;;;19.33;10.65;;;4.40;99.90;;;;;;4870033;29;20112;-77
2022/11/22 03:27:06;;;;;;;20.00;10.00;;;4.40;99.90;;;;;;4865281;29;20032;-77
2022/11/22 03:29:32;;;;;;;24.27;10.85;;;4.40;99.90;;;;;;4872325;29;20041;-77
2022/11/22 03:31:57;;;;;;;17.33;9.75;;;4.30;99.90;;;;;;4872162;29;20115;-77
2022/11/22 03:34:23;;;;;;;18.55;9.48;;;4.30;99.90;;;;;;4875420;29;20486;-77
2022/11/22 03:36:48;;;;;;;19.73;10.73;;;4.30;99.90;;;;;;4869972;29;20045;-77
2022/11/22 03:39:14;;;;;;;16.15;10.32;;;4.30;99.90;;;;;;4874213;29;20029;-77
2022/11/22 03:41:39;;;;;;;19.30;10.82;;;4.30;99.90;;;;;;4873236;29;20119;-77
2022/11/22 03:44:05;;;;;;;45.67;23.00;;;4.30;99.90;;;;;;4870403;29;20067;-77
2022/11/22 03:46:31;;;;;;;27.95;13.13;;;4.30;99.90;;;;;;4867372;29;20072;-77
2022/11/22 03:48:56;;;;;;;23.60;12.38;;;4.20;99.90;;;;;;4872156;29;20485;-78
2022/11/22 03:51:22;;;;;;;16.52;9.55;;;4.20;99.90;;;;;;4873225;29;20425;-77
2022/11/22 03:53:47;;;;;;;25.95;9.98;;;4.20;99.90;;;;;;4893463;29;20044;-77
2022/11/22 03:56:13;;;;;;;29.23;14.60;;;4.20;99.90;;;;;;4890610;29;20051;-77
2022/11/22 03:58:39;;;;;;;21.40;11.02;;;4.20;99.90;;;;;;4885475;29;20032;-77
2022/11/22 04:01:04;;;;;;;15.85;9.93;;;4.30;99.90;;;;;;4884020;29;20079;-77
2022/11/22 04:03:30;;;;;;;21.23;10.23;;;4.40;99.90;;;;;;4884793;29;20837;-77
2022/11/22 04:05:55;;;;;;;27.60;16.50;;;4.40;99.90;;;;;;4884693;29;20074;-76
2022/11/22 04:08:21;;;;;;;18.15;13.27;;;4.40;99.90;;;;;;4887792;29;20139;-76
2022/11/22 04:10:51;;;;;;;20.90;10.82;;;4.40;99.90;;;;;;4890325;29;20056;-77
2022/11/22 04:13:17;;;;;;;22.83;11.50;;;4.40;99.90;;;;;;4885622;29;20715;-76
2022/11/22 04:15:42;;;;;;;17.83;11.02;;;4.30;99.90;;;;;;4887028;29;20052;-77
2022/11/22 04:18:10;;;;;;;18.58;11.30;;;4.30;99.90;;;;;;4885312;29;20522;-77
2022/11/22 04:23:22;;;;;;;16.73;11.45;;;4.20;99.90;;;;;;4892335;29;20042;-76
2022/11/22 04:25:51;;;;;;;18.00;10.73;;;4.10;99.90;;;;;;4894425;29;20032;-76
2022/11/22 04:28:19;;;;;;;19.42;10.95;;;4.20;99.90;;;;;;4884964;29;20528;-76
2022/11/22 04:33:29;;;;;;;16.20;10.70;;;4.30;99.90;;;;;;4894033;29;20055;-70
2022/11/22 04:35:55;;;;;;;18.13;11.25;;;4.30;99.90;;;;;;4892991;29;20020;-71
2022/11/22 04:38:21;;;;;;;20.98;10.93;;;4.30;99.90;;;;;;4891479;29;20043;-71
2022/11/22 04:40:46;;;;;;;22.33;10.93;;;4.30;99.90;;;;;;4892941;29;20032;-71
2022/11/22 04:46:18;;;;;;;16.85;10.40;;;4.40;99.90;;;;;;4862623;29;20074;-71
2022/11/22 04:48:43;;;;;;;21.80;11.15;;;4.50;99.90;;;;;;4888387;29;20115;-71
2022/11/22 04:53:57;;;;;;;24.27;14.63;;;4.50;99.90;;;;;;4869568;29;20451;-71
2022/11/22 04:56:22;;;;;;;22.52;14.88;;;4.50;99.90;;;;;;4871482;29;20048;-71
2022/11/22 04:58:50;;;;;;;22.17;13.50;;;4.50;99.90;;;;;;4869100;29;20037;-70
2022/11/22 05:01:16;;;;;;;25.23;16.48;;;4.50;99.90;;;;;;4868585;29;20100;-70
2022/11/22 05:03:41;;;;;;;23.90;13.63;;;4.50;99.90;;;;;;4865449;29;20510;-71
2022/11/22 05:06:12;;;;;;;19.30;12.05;;;4.50;99.90;;;;;;4867453;29;20049;-71
2022/11/22 05:08:37;;;;;;;22.48;11.68;;;4.50;99.90;;;;;;4871399;29;20127;-71
2022/11/22 05:11:03;;;;;;;20.02;12.35;;;4.50;99.90;;;;;;4869712;29;20079;-71
2022/11/22 05:13:32;;;;;;;24.73;13.00;;;4.50;99.90;;;;;;4867413;29;20040;-71
2022/11/22 05:15:59;;;;;;;28.95;13.38;;;4.50;99.90;;;;;;4866384;29;20045;-71
2022/11/22 05:18:25;;;;;;;24.63;13.55;;;4.40;99.90;;;;;;4868374;29;20458;-71
2022/11/22 05:20:52;;;;;;;19.05;12.65;;;4.40;99.90;;;;;;4870267;29;20482;-71
2022/11/22 05:26:06;;;;;;;17.50;11.98;;;4.50;99.90;;;;;;4866239;29;20176;-71
2022/11/22 05:28:34;;;;;;;21.27;12.73;;;4.50;99.90;;;;;;4863624;29;20066;-71
2022/11/22 05:31:12;;;;;;;24.10;12.65;;;4.50;99.90;;;;;;4871858;29;20938;-71
2022/11/22 05:33:40;;;;;;;21.98;12.85;;;4.50;99.90;;;;;;4872648;29;20116;-72
2022/11/22 05:36:07;;;;;;;21.00;13.02;;;4.50;99.90;;;;;;4874338;29;20044;-71
2022/11/22 05:38:37;;;;;;;20.00;12.20;;;4.50;99.90;;;;;;4870146;29;20057;-72
2022/11/22 05:41:04;;;;;;;22.42;12.98;;;4.50;99.90;;;;;;4870700;29;20094;-71
2022/11/22 05:43:30;;;;;;;20.52;12.40;;;4.50;99.90;;;;;;4851435;29;20040;-71
2022/11/22 05:46:03;;;;;;;24.77;13.68;;;4.60;99.90;;;;;;4870565;29;20044;-71
2022/11/22 05:48:28;;;;;;;18.63;12.32;;;4.60;99.90;;;;;;4872363;29;20040;-71
2022/11/22 05:50:54;;;;;;;24.63;13.25;;;4.60;99.90;;;;;;4873442;29;20087;-71
2022/11/22 05:53:20;;;;;;;21.80;13.23;;;4.60;99.90;;;;;;4868365;29;20132;-70
2022/11/22 05:55:45;;;;;;;25.55;13.38;;;4.60;99.90;;;;;;4871401;29;20076;-71
2022/11/22 05:58:11;;;;;;;19.55;12.25;;;4.50;99.90;;;;;;4865422;29;21060;-71
2022/11/22 06:00:36;;;;;;;27.20;14.50;;;4.50;99.90;;;;;;4865190;29;20304;-69
2022/11/22 06:03:03;;;;;;;34.70;16.52;;;4.50;99.90;;;;;;4867425;29;20196;-71
2022/11/22 06:05:29;;;;;;;25.70;16.63;;;4.50;99.90;;;;;;4874342;29;20037;-71
2022/11/22 06:08:01;;;;;;;21.92;13.27;;;4.50;99.90;;;;;;4865708;29;20063;-71
2022/11/22 06:10:27;;;;;;;24.75;12.93;;;4.60;99.90;;;;;;4862880;29;20044;-71
2022/11/22 06:12:54;;;;;;;22.80;12.73;;;4.70;99.90;;;;;;4864514;29;20076;-71
2022/11/22 06:15:20;;;;;;;27.10;14.05;;;4.70;99.90;;;;;;4867177;29;20045;-71
2022/11/22 06:17:46;;;;;;;23.92;14.73;;;4.80;99.90;;;;;;4850155;29;20538;-71
2022/11/22 06:20:12;;;;;;;21.15;13.88;;;4.80;99.90;;;;;;4863266;29;20085;-72
2022/11/22 06:22:37;;;;;;;19.48;12.68;;;4.80;99.90;;;;;;4866671;29;20111;-71
2022/11/22 06:25:03;;;;;;;18.05;11.88;;;4.90;99.90;;;;;;4870536;29;20068;-72
2022/11/22 06:27:29;;;;;;;15.38;11.43;;;4.90;99.90;;;;;;4867503;29;20055;-72
2022/11/22 06:29:54;;;;;;;16.60;12.43;;;4.90;99.90;;;;;;4864232;29;20584;-71
2022/11/22 06:32:20;;;;;;;14.63;10.88;;;5.00;99.90;;;;;;4869198;29;20049;-70
2022/11/22 06:34:46;;;;;;;15.00;11.38;;;5.00;99.90;;;;;;4871470;29;20036;-72
2022/11/22 06:37:14;;;;;;;20.15;15.00;;;5.10;99.90;;;;;;4868958;29;20044;-71
2022/11/22 06:39:40;;;;;;;20.00;16.67;;;5.10;99.90;;;;;;4867117;29;20036;-71
2022/11/22 06:42:06;;;;;;;14.13;11.93;;;5.10;99.90;;;;;;4873036;29;20029;-71
2022/11/22 06:44:33;;;;;;;12.23;10.05;;;5.20;99.90;;;;;;4868607;29;20515;-71
2022/11/22 06:46:58;;;;;;;11.93;9.65;;;5.20;99.90;;;;;;4872029;29;20686;-71
2022/11/22 06:49:24;;;;;;;10.68;9.02;;;5.10;99.90;;;;;;4861468;29;20092;-71
2022/11/22 06:51:50;;;;;;;12.18;9.60;;;5.10;99.90;;;;;;4868979;29;20052;-71
2022/11/22 06:54:15;;;;;;;13.77;10.45;;;5.10;99.90;;;;;;4880078;29;20525;-71
2022/11/22 06:56:41;;;;;;;13.57;10.00;;;5.10;99.90;;;;;;4878328;29;20040;-72
2022/11/22 06:59:07;;;;;;;10.85;9.75;;;5.10;99.90;;;;;;4881261;29;20033;-72
2022/11/22 07:01:34;;;;;;;12.52;9.48;;;5.10;99.90;;;;;;4864866;29;20045;-70
2022/11/22 07:04:00;;;;;;;12.32;9.68;;;5.10;99.90;;;;;;4876375;29;20103;-71
2022/11/22 07:06:31;;;;;;;13.25;10.55;;;5.10;99.90;;;;;;4875282;29;20064;-71
2022/11/22 07:08:59;;;;;;;14.50;11.13;;;5.10;99.90;;;;;;4878617;29;20076;-71
2022/11/22 07:11:27;;;;;;;14.70;11.32;;;5.10;99.90;;;;;;4877523;29;20057;-71
2022/11/22 07:13:57;;;;;;;11.68;9.95;;;5.10;99.90;;;;;;4876979;29;20044;-71
2022/11/22 07:16:22;;;;;;;13.15;10.00;;;5.10;99.90;;;;;;4878801;29;20048;-71
2022/11/22 07:18:48;;;;;;;14.32;11.30;;;5.20;99.90;;;;;;4880322;29;20075;-71
2022/11/22 07:21:22;;;;;;;12.55;9.82;;;5.10;99.90;;;;;;4872263;29;20068;-71
2022/11/22 07:23:49;;;;;;;11.45;9.20;;;5.10;99.90;;;;;;4874175;29;20095;-71
2022/11/22 07:26:17;;;;;;;11.77;9.20;;;5.10;99.90;;;;;;4876847;29;20036;-71
2022/11/22 07:28:43;;;;;;;10.90;8.65;;;5.10;99.90;;;;;;4861948;29;20040;-71
2022/11/22 07:31:11;;;;;;;11.00;9.15;;;5.10;99.90;;;;;;4867331;29;20045;-71
2022/11/22 07:33:36;;;;;;;12.27;8.48;;;5.10;99.90;;;;;;4883353;29;20097;-71
2022/11/22 07:36:16;;;;;;;10.23;8.38;;;5.10;99.90;;;;;;4874221;29;20052;-71
2022/11/22 07:38:42;;;;;;;14.00;9.80;;;5.10;99.90;;;;;;4871185;29;20634;-71
2022/11/22 07:41:08;;;;;;;10.00;8.38;;;5.20;99.90;;;;;;4876825;29;20055;-70
2022/11/22 07:43:34;;;;;;;12.20;9.18;;;5.20;99.90;;;;;;4874603;29;20506;-71
2022/11/22 07:46:02;;;;;;;10.70;8.05;;;5.30;99.90;;;;;;4874979;29;20060;-71
2022/11/22 07:48:28;;;;;;;11.40;7.63;;;5.30;99.90;;;;;;4859354;29;20032;-71
2022/11/22 07:50:53;;;;;;;10.10;7.80;;;5.30;99.90;;;;;;4875526;29;20053;-71
2022/11/22 07:53:19;;;;;;;13.32;8.32;;;5.40;99.90;;;;;;4878553;29;20112;-71
2022/11/22 07:55:45;;;;;;;12.85;9.10;;;5.40;99.90;;;;;;4876164;29;20040;-71
2022/11/22 07:58:10;;;;;;;13.55;9.32;;;5.30;99.90;;;;;;4870127;29;20037;-71
2022/11/22 08:00:36;;;;;;;18.90;12.32;;;5.30;99.90;;;;;;4877954;29;20055;-71
2022/11/22 08:03:02;;;;;;;16.67;11.50;;;5.40;99.90;;;;;;4871207;29;20037;-71
2022/11/22 08:05:27;;;;;;;18.50;11.02;;;5.40;99.90;;;;;;4877987;29;20033;-71
2022/11/22 08:07:53;;;;;;;12.68;9.43;;;5.50;99.90;;;;;;4869628;29;20078;-71
2022/11/22 08:10:19;;;;;;;14.15;9.77;;;5.40;99.90;;;;;;4874214;29;20033;-71
2022/11/22 08:12:45;;;;;;;11.75;9.23;;;5.30;99.90;;;;;;4876794;29;20036;-71
2022/11/22 08:15:13;;;;;;;14.93;10.02;;;5.30;99.90;;;;;;4882162;29;20151;-71
2022/11/22 08:17:39;;;;;;;13.38;8.93;;;5.40;99.90;;;;;;4881774;29;20040;-71
2022/11/22 08:20:08;;;;;;;15.63;11.15;;;5.30;99.90;;;;;;4879976;29;20104;-71
2022/11/22 08:22:34;;;;;;;12.23;9.32;;;5.40;99.90;;;;;;4880157;29;20048;-70
2022/11/22 08:24:59;;;;;;;13.02;9.45;;;5.30;99.90;;;;;;4880740;29;20098;-70
2022/11/22 08:27:25;;;;;;;13.90;10.00;;;5.20;99.90;;;;;;4880970;29;20044;-70
2022/11/22 08:29:50;;;;;;;12.63;9.50;;;5.20;99.90;;;;;;4878526;29;20045;-70
2022/11/22 08:32:16;;;;;;;13.70;8.93;;;5.20;99.90;;;;;;4872291;29;20470;-71
2022/11/22 08:34:41;;;;;;;12.30;9.25;;;5.20;99.90;;;;;;4878735;29;20046;-70
2022/11/22 08:37:07;;;;;;;14.10;9.52;;;5.30;99.90;;;;;;4876064;29;20128;-71
2022/11/22 08:39:32;;;;;;;15.40;10.23;;;5.30;99.90;;;;;;4883190;29;20048;-70
2022/11/22 08:41:58;;;;;;;14.93;10.38;;;5.30;99.90;;;;;;4876275;29;20517;-71
2022/11/22 08:44:23;;;;;;;16.15;11.25;;;5.30;99.90;;;;;;4877247;29;20045;-70
2022/11/22 08:46:49;;;;;;;15.57;10.63;;;5.20;99.90;;;;;;4870725;29;20040;-70
2022/11/22 08:49:15;;;;;;;14.85;10.93;;;5.20;99.90;;;;;;4879380;29;20037;-70
2022/11/22 08:51:43;;;;;;;18.15;11.82;;;5.10;99.90;;;;;;4887277;29;20095;-70
2022/11/22 08:54:10;;;;;;;17.60;11.98;;;5.10;99.90;;;;;;4885463;29;20044;-72
2022/11/22 08:56:36;;;;;;;11.65;9.07;;;5.10;99.90;;;;;;4876794;29;20037;-71
2022/11/22 08:59:02;;;;;;;16.48;9.65;;;5.10;99.90;;;;;;4875418;29;20064;-72
2022/11/22 09:01:27;;;;;;;13.15;9.25;;;5.20;99.90;;;;;;4880308;29;20045;-71
2022/11/22 09:03:53;;;;;;;19.25;13.32;;;5.20;99.90;;;;;;4873202;29;20125;-71
2022/11/22 09:06:19;;;;;;;16.25;12.07;;;5.40;99.90;;;;;;4882804;29;20148;-71
2022/11/22 09:08:45;;;;;;;18.10;13.02;;;5.30;99.90;;;;;;4876367;29;21330;-70
2022/11/22 09:11:14;;;;;;;14.52;10.82;;;5.30;99.90;;;;;;4862417;29;20063;-71
2022/11/22 09:13:40;;;;;;;16.55;11.68;;;5.30;99.90;;;;;;4880547;29;20033;-71
2022/11/22 09:16:11;;;;;;;16.42;11.25;;;5.30;99.90;;;;;;4877533;29;20063;-70
2022/11/22 09:18:37;;;;;;;14.88;10.88;;;5.30;99.90;;;;;;4880552;29;20063;-71
2022/11/22 09:21:05;;;;;;;16.02;11.25;;;5.40;99.90;;;;;;4883630;29;20487;-71
2022/11/22 09:23:32;;;;;;;12.10;8.50;;;5.40;99.90;;;;;;4877573;29;20045;-71
2022/11/22 09:26:00;;;;;;;12.25;9.45;;;5.40;99.90;;;;;;4880694;29;20170;-71
2022/11/22 09:28:27;;;;;;;14.60;10.63;;;5.40;99.90;;;;;;4879004;29;20088;-71
2022/11/22 09:31:00;;;;;;;12.38;9.73;;;5.40;99.90;;;;;;4877269;29;20043;-71
2022/11/22 09:33:26;;;;;;;14.13;10.52;;;5.40;99.90;;;;;;4876820;29;20036;-71
2022/11/22 09:35:57;;;;;;;14.27;10.32;;;5.40;99.90;;;;;;4876100;29;20029;-71
2022/11/22 09:38:23;;;;;;;14.48;9.85;;;5.40;99.90;;;;;;4857029;29;20131;-71
2022/11/22 09:40:48;;;;;;;16.60;11.20;;;5.40;99.90;;;;;;4873559;29;20397;-70
2022/11/22 09:43:40;;;;;;;19.85;13.38;;;5.40;99.90;;;;;;4871640;29;20064;-71
2022/11/22 09:46:35;;;;;;;14.43;10.60;;;5.40;99.90;;;;;;4866332;29;20501;-71
2022/11/22 09:49:22;;;;;;;17.13;11.63;;;5.30;99.90;;;;;;4879334;29;20059;-70
2022/11/22 09:51:58;;;;;;;16.38;11.43;;;5.40;99.90;;;;;;4885514;29;20041;-70
2022/11/22 09:54:34;;;;;;;12.35;9.38;;;5.50;99.90;;;;;;4899089;29;20032;-70
2022/11/22 09:57:04;;;;;;;12.77;9.70;;;5.40;99.90;;;;;;4892832;29;20525;-71
2022/11/22 09:59:34;;;;;;;17.08;11.57;;;5.50;99.90;;;;;;4882441;29;20457;-70
2022/11/22 10:02:13;;;;;;;15.85;10.35;;;5.50;99.90;;;;;;4895344;29;20074;-71
2022/11/22 10:05:01;;;;;;;12.10;9.15;;;5.60;99.90;;;;;;4891850;29;20039;-71
2022/11/22 10:07:34;;;;;;;11.52;8.93;;;5.60;99.90;;;;;;4895587;29;20032;-71
2022/11/22 10:10:14;;;;;;;12.82;9.48;;;5.50;99.90;;;;;;4898130;29;20032;-71
2022/11/22 10:12:49;;;;;;;17.73;11.50;;;5.50;99.90;;;;;;4894603;29;20151;-71
2022/11/22 10:15:35;;;;;;;16.95;10.60;;;5.60;99.90;;;;;;4903825;29;20091;-71
2022/11/22 10:18:24;;;;;;;14.32;10.25;;;5.60;99.90;;;;;;4890118;29;20122;-71
2022/11/22 10:21:12;;;;;;;17.50;12.23;;;5.50;99.90;;;;;;4898576;29;20044;-71
2022/11/22 10:23:40;;;;;;;30.65;18.90;;;5.60;99.90;;;;;;4900751;29;20051;-71
2022/11/22 10:26:23;;;;;;;26.27;16.77;;;5.60;99.90;;;;;;4902103;29;20044;-71
2022/11/22 10:29:07;;;;;;;24.67;16.00;;;5.70;99.90;;;;;;4900121;29;20371;-71
2022/11/22 10:31:46;;;;;;;20.35;12.93;;;5.60;99.90;;;;;;4885993;29;20052;-71
2022/11/22 10:34:27;;;;;;;18.75;12.70;;;5.70;99.90;;;;;;4890815;29;21372;-71
2022/11/22 10:37:33;;;;;;;14.80;10.48;;;5.70;99.90;;;;;;4893156;29;20488;-71
2022/11/22 10:40:41;;;;;;;14.20;11.50;;;5.50;99.90;;;;;;4889674;29;20040;-71
2022/11/22 10:43:32;;;;;;;14.63;10.55;;;5.50;99.90;;;;;;4897535;29;20044;-71
2022/11/22 10:46:24;;;;;;;18.95;12.02;;;5.60;99.90;;;;;;4890384;29;20070;-71
2022/11/22 10:49:04;;;;;;;19.27;13.20;;;5.60;99.90;;;;;;4892410;29;20048;-71
2022/11/22 10:51:58;;;;;;;17.83;11.50;;;5.70;99.90;;;;;;4888367;29;20691;-71
2022/11/22 10:54:40;;;;;;;16.02;11.23;;;5.70;99.90;;;;;;4872062;29;20405;-71
2022/11/22 10:57:31;;;;;;;15.80;11.60;;;5.70;99.90;;;;;;4855876;29;20037;-70
2022/11/22 11:00:19;;;;;;;16.60;12.20;;;5.80;99.90;;;;;;4880040;29;20068;-71
2022/11/22 11:03:00;;;;;;;15.48;11.05;;;5.90;99.90;;;;;;4874221;29;20294;-71
2022/11/22 11:05:44;;;;;;;18.50;13.45;;;6.00;99.90;;;;;;4864562;29;20549;-71
2022/11/22 11:08:39;;;;;;;18.50;12.63;;;6.00;99.90;;;;;;4872775;29;20493;-70
2022/11/22 11:11:05;;;;;;;18.33;13.18;;;6.00;99.90;;;;;;4863943;29;20265;-71
2022/11/22 11:13:46;;;;;;;23.15;15.25;;;6.00;99.90;;;;;;4872006;29;20140;-71
2022/11/22 11:16:17;;;;;;;22.08;15.57;;;6.00;99.90;;;;;;4869254;29;20619;-71
2022/11/22 11:18:48;;;;;;;14.05;10.48;;;6.10;99.90;;;;;;4873715;29;20049;-70
2022/11/22 11:21:14;;;;;;;16.30;12.57;;;6.10;99.90;;;;;;4874961;29;20044;-70
2022/11/22 11:23:41;;;;;;;17.98;12.15;;;6.10;99.90;;;;;;4857556;29;20037;-71
2022/11/22 11:26:27;;;;;;;18.33;13.70;;;6.00;99.90;;;;;;4865886;29;20324;-71
2022/11/22 11:29:14;;;;;;;17.77;12.43;;;6.00;99.90;;;;;;4869954;29;20049;-71
2022/11/22 11:31:48;;;;;;;15.50;11.68;;;6.10;99.90;;;;;;4870817;29;20061;-70
2022/11/22 11:34:22;;;;;;;15.40;11.50;;;6.10;99.90;;;;;;4867339;29;20155;-71
2022/11/22 11:36:49;;;;;;;18.60;12.07;;;6.00;99.90;;;;;;4870256;29;21184;-71
2022/11/22 11:39:26;;;;;;;17.33;12.27;;;6.00;99.90;;;;;;4855934;29;20025;-73
2022/11/22 11:41:52;;;;;;;18.13;12.30;;;6.00;99.90;;;;;;4876869;29;20052;-72
2022/11/22 11:44:35;;;;;;;16.75;11.70;;;6.10;99.90;;;;;;4872911;29;20072;-73
2022/11/22 11:47:02;;;;;;;17.27;12.98;;;6.20;99.90;;;;;;4874566;29;20102;-73
2022/11/22 11:49:30;;;;;;;17.30;12.52;;;6.20;99.90;;;;;;4881308;29;20036;-73
2022/11/22 11:52:05;;;;;;;18.05;12.95;;;6.30;99.90;;;;;;4879839;29;20148;-73
2022/11/22 11:54:48;;;;;;;20.92;14.10;;;6.30;99.90;;;;;;4875397;29;20056;-72
2022/11/22 11:57:34;;;;;;;18.45;13.55;;;6.20;99.90;;;;;;4878110;29;20051;-73
2022/11/22 12:00:02;;;;;;;17.08;13.13;;;6.20;99.90;;;;;;4876541;29;20040;-73
2022/11/22 12:02:39;;;;;;;16.00;12.20;;;6.10;99.90;;;;;;4873225;29;20037;-73
2022/11/22 12:05:12;;;;;;;15.88;11.90;;;6.20;99.90;;;;;;4870125;29;20033;-73
2022/11/22 12:07:37;;;;;;;16.10;11.88;;;6.20;99.90;;;;;;4867581;29;20633;-73
2022/11/22 12:10:42;;;;;;;17.42;12.45;;;6.20;99.90;;;;;;4873905;29;20053;-73
2022/11/22 12:13:23;;;;;;;18.35;13.40;;;6.30;99.90;;;;;;4869269;29;20068;-73
2022/11/22 12:16:21;;;;;;;16.63;12.15;;;6.30;99.90;;;;;;4877206;29;20037;-73
2022/11/22 12:19:11;;;;;;;17.33;11.73;;;6.30;99.90;;;;;;4862668;29;20080;-73
2022/11/22 12:21:46;;;;;;;17.15;12.25;;;6.40;99.90;;;;;;4870415;29;20044;-73
2022/11/22 12:24:31;;;;;;;16.33;12.00;;;6.40;99.90;;;;;;4870224;29;20072;-73
2022/11/22 12:26:57;;;;;;;16.30;12.38;;;6.40;99.90;;;;;;4872894;29;20049;-73
2022/11/22 12:29:23;;;;;;;18.83;13.48;;;6.40;99.90;;;;;;4877585;29;20394;-73
2022/11/22 12:32:01;;;;;;;17.90;12.82;;;6.50;99.90;;;;;;4879439;29;20410;-73
2022/11/22 12:34:36;;;;;;;18.40;13.20;;;6.60;99.90;;;;;;4870356;29;20401;-76
2022/11/22 12:37:33;;;;;;;15.73;12.20;;;6.60;99.90;;;;;;4872172;29;20120;-76
2022/11/22 12:40:04;;;;;;;15.80;12.18;;;6.50;99.90;;;;;;4872544;29;20537;-73
2022/11/22 12:43:02;;;;;;;17.73;12.07;;;6.60;99.90;;;;;;4876508;29;20166;-74
2022/11/22 12:45:39;;;;;;;13.93;11.13;;;6.60;99.90;;;;;;4883371;29;20389;-74
2022/11/22 12:48:11;;;;;;;12.75;9.90;;;6.60;99.90;;;;;;4878213;29;20041;-74
2022/11/22 12:50:48;;;;;;;12.50;9.95;;;6.60;99.90;;;;;;4862756;29;20067;-73
2022/11/22 12:53:19;;;;;;;11.68;9.20;;;6.50;99.90;;;;;;4867702;29;20139;-73
2022/11/22 12:55:48;;;;;;;13.18;9.90;;;6.40;99.90;;;;;;4868162;29;20044;-73
2022/11/22 12:58:29;;;;;;;11.93;9.05;;;6.30;99.90;;;;;;4874229;29;20137;-73
2022/11/22 13:01:11;;;;;;;12.52;8.93;;;6.30;99.90;;;;;;4867178;29;20043;-73
2022/11/22 13:04:01;;;;;;;11.52;8.82;;;6.30;99.90;;;;;;4867510;29;20124;-73
2022/11/22 13:06:36;;;;;;;12.68;8.65;;;6.30;99.90;;;;;;4846446;29;20540;-73